createdAt,value
2018-09-21T00:04:10.814Z,95637.00
2018-09-21T00:09:40.236Z,95636.00
2018-09-21T00:15:09.611Z,95619.00
2018-09-21T00:20:38.949Z,95613.00
2018-09-21T00:26:08.720Z,95609.00
2018-09-21T00:31:37.983Z,95607.00
2018-09-21T00:37:07.598Z,95602.00
2018-09-21T00:42:38.002Z,95597.00
2018-09-21T00:48:07.387Z,95598.00
2018-09-21T00:53:37.408Z,95589.00
2018-09-21T00:59:07.580Z,95586.00
2018-09-21T01:04:44.610Z,95585.00
2018-09-21T01:10:14.035Z,95579.00
2018-09-21T01:15:43.469Z,95584.00
2018-09-21T01:21:12.891Z,95563.00
2018-09-21T01:26:42.289Z,95565.00
2018-09-21T01:32:11.772Z,95566.00
2018-09-21T01:37:41.232Z,95557.00
2018-09-21T01:43:10.616Z,95561.00
2018-09-21T01:48:40.039Z,95549.00
2018-09-21T01:54:09.380Z,95542.00
2018-09-21T01:59:38.844Z,95539.00
2018-09-21T02:05:08.251Z,95533.00
2018-09-21T02:10:37.479Z,95542.00
2018-09-21T02:16:06.780Z,95540.00
2018-09-21T02:21:36.019Z,95533.00
2018-09-21T02:27:05.440Z,95536.00
2018-09-21T02:32:34.657Z,95530.00
2018-09-21T02:38:03.975Z,95535.00
2018-09-21T02:43:33.296Z,95531.00
2018-09-21T02:49:02.977Z,95531.00
2018-09-21T02:54:32.204Z,95533.00
2018-09-21T03:00:01.544Z,95529.00
2018-09-21T03:05:30.935Z,95528.00
2018-09-21T03:11:00.401Z,95523.00
2018-09-21T03:16:29.650Z,95533.00
2018-09-21T03:21:59.447Z,95525.00
2018-09-21T03:27:28.666Z,95525.00
2018-09-21T03:32:57.900Z,95532.00
2018-09-21T03:38:27.300Z,95532.00
2018-09-21T03:43:56.615Z,95527.00
2018-09-21T03:49:25.832Z,95527.00
2018-09-21T03:54:55.052Z,95522.00
2018-09-21T04:00:24.340Z,95518.00
2018-09-21T04:05:53.616Z,95506.00
2018-09-21T04:11:22.826Z,95503.00
2018-09-21T04:16:52.032Z,95504.00
2018-09-21T04:22:21.345Z,95494.00
2018-09-21T04:27:50.817Z,95495.00
2018-09-21T04:33:20.144Z,95494.00
2018-09-21T04:38:49.680Z,95490.00
2018-09-21T04:44:23.249Z,95485.00
2018-09-21T04:49:52.533Z,95481.00
2018-09-21T04:55:21.861Z,95481.00
2018-09-21T05:00:51.201Z,95475.00
2018-09-21T05:06:20.931Z,95476.00
2018-09-21T05:11:50.286Z,95494.00
2018-09-21T05:17:19.628Z,95495.00
2018-09-21T05:22:48.871Z,95484.00
2018-09-21T05:28:18.286Z,95484.00
2018-09-21T05:33:47.724Z,95505.00
2018-09-21T05:39:17.204Z,95501.00
2018-09-21T05:44:46.518Z,95500.00
2018-09-21T05:50:15.831Z,95503.00
2018-09-21T05:55:45.262Z,95503.00
2018-09-21T06:01:14.598Z,95504.00
2018-09-21T06:06:43.953Z,95502.00
2018-09-21T06:12:14.385Z,95497.00
2018-09-21T06:17:43.800Z,95491.00
2018-09-21T06:23:13.286Z,95487.00
2018-09-21T06:28:42.880Z,95490.00
2018-09-21T06:34:12.321Z,95499.00
2018-09-21T06:39:41.805Z,95491.00
2018-09-21T06:45:11.324Z,95491.00
2018-09-21T06:50:42.789Z,95489.00
2018-09-21T06:56:12.240Z,95490.00
2018-09-21T07:01:41.726Z,95484.00
2018-09-21T07:07:11.065Z,95494.00
2018-09-21T07:12:40.483Z,95490.00
2018-09-21T07:18:09.877Z,95499.00
2018-09-21T07:23:40.331Z,95498.00
2018-09-21T07:29:09.757Z,95498.00
2018-09-21T07:34:39.068Z,95494.00
2018-09-21T07:40:08.409Z,95491.00
2018-09-21T07:45:37.670Z,95503.00
2018-09-21T07:51:07.128Z,95496.00
2018-09-21T07:56:36.323Z,95491.00
2018-09-21T08:02:05.524Z,95499.00
2018-09-21T08:07:34.714Z,95499.00
2018-09-21T08:13:03.947Z,95495.00
2018-09-21T08:18:33.467Z,95507.00
2018-09-21T08:24:04.138Z,95498.00
2018-09-21T08:29:33.363Z,95497.00
2018-09-21T08:35:02.683Z,95500.00
2018-09-21T08:40:31.899Z,95498.00
2018-09-21T08:46:01.151Z,95496.00
2018-09-21T08:51:30.437Z,95497.00
2018-09-21T08:56:59.692Z,95488.00
2018-09-21T09:02:29.039Z,95493.00
2018-09-21T09:07:58.397Z,95494.00
2018-09-21T09:13:27.623Z,95480.00
2018-09-21T09:18:56.876Z,95488.00
2018-09-21T09:24:26.231Z,95478.00
2018-09-21T09:29:55.701Z,95478.00
2018-09-21T09:35:26.031Z,95475.00
2018-09-21T09:40:55.247Z,95466.00
2018-09-21T09:46:25.452Z,95465.00
2018-09-21T09:51:54.760Z,95467.00
2018-09-21T09:57:24.208Z,95459.00
2018-09-21T10:02:54.552Z,95463.00
2018-09-21T10:08:23.786Z,95453.00
2018-09-21T10:13:53.338Z,95452.00
2018-09-21T10:19:23.177Z,95441.00
2018-09-21T10:24:52.411Z,95439.00
2018-09-21T10:30:21.671Z,95425.00
2018-09-21T10:35:51.717Z,95426.00
2018-09-21T10:41:21.011Z,95424.00
2018-09-21T10:46:51.320Z,95419.00
2018-09-21T10:52:20.584Z,95415.00
2018-09-21T10:57:49.897Z,95422.00
2018-09-21T11:03:19.269Z,95419.00
2018-09-21T11:08:52.378Z,95417.00
2018-09-21T11:14:21.800Z,95418.00
2018-09-21T11:19:51.043Z,95409.00
2018-09-21T11:25:20.352Z,95407.00
2018-09-21T11:30:49.651Z,95390.00
2018-09-21T11:36:18.895Z,95396.00
2018-09-21T11:41:48.154Z,95391.00
2018-09-21T11:47:17.777Z,95378.00
2018-09-21T11:52:47.571Z,95358.00
2018-09-21T11:58:16.925Z,95368.00
2018-09-21T12:03:46.511Z,95350.00
2018-09-21T12:09:15.792Z,95338.00
2018-09-21T12:14:45.312Z,95344.00
2018-09-21T12:20:14.864Z,95329.00
2018-09-21T12:25:44.763Z,95328.00
2018-09-21T12:31:14.552Z,95345.00
2018-09-21T12:36:44.075Z,95341.00
2018-09-21T12:42:13.673Z,95335.00
2018-09-21T12:47:43.101Z,95326.00
2018-09-21T12:53:12.589Z,95317.00
2018-09-21T12:58:42.364Z,95310.00
2018-09-21T13:04:11.922Z,95301.00
2018-09-21T13:09:41.427Z,95315.00
2018-09-21T13:15:12.688Z,95310.00
2018-09-21T13:20:44.296Z,95297.00
2018-09-21T13:26:14.964Z,95293.00
2018-09-21T13:31:44.709Z,95279.00
2018-09-21T13:37:14.318Z,95278.00
2018-09-21T13:42:45.027Z,95283.00
2018-09-21T13:48:14.556Z,95276.00
2018-09-21T13:53:43.932Z,95277.00
2018-09-21T13:59:13.457Z,95242.00
2018-09-21T14:04:43.002Z,95273.00
2018-09-21T14:10:12.620Z,95249.00
2018-09-21T14:15:42.103Z,95259.00
2018-09-21T14:21:11.553Z,95255.00
2018-09-21T14:26:41.116Z,95241.00
2018-09-21T14:32:10.856Z,95251.00
2018-09-21T14:37:40.584Z,95257.00
2018-09-21T14:43:10.238Z,95245.00
2018-09-21T14:48:40.954Z,95242.00
2018-09-21T14:54:10.787Z,95239.00
2018-09-21T14:59:40.744Z,95232.00
2018-09-21T15:05:10.453Z,95219.00
2018-09-21T15:10:40.685Z,95212.00
2018-09-21T15:16:10.527Z,95228.00
2018-09-21T15:21:40.346Z,95243.00
2018-09-21T15:27:09.951Z,95243.00
2018-09-21T15:32:39.413Z,95245.00
2018-09-21T15:38:09.192Z,95250.00
2018-09-21T15:43:38.767Z,95244.00
2018-09-21T15:49:08.068Z,95248.00
2018-09-21T15:54:37.420Z,95251.00
2018-09-21T16:00:08.059Z,95248.00
2018-09-21T16:05:38.523Z,95246.00
2018-09-21T16:11:10.312Z,95241.00
2018-09-21T16:16:39.857Z,95242.00
2018-09-21T16:22:09.653Z,95249.00
2018-09-21T16:27:39.222Z,95247.00
2018-09-21T16:33:11.886Z,95258.00
2018-09-21T16:38:42.160Z,95255.00
2018-09-21T16:44:12.617Z,95267.00
2018-09-21T16:49:42.094Z,95271.00
2018-09-21T16:55:11.507Z,95294.00
2018-09-21T17:00:40.880Z,95313.00
2018-09-21T17:06:10.454Z,95315.00
2018-09-21T17:11:39.968Z,95329.00
2018-09-21T17:17:10.432Z,95326.00
2018-09-21T17:22:39.950Z,95349.00
2018-09-21T17:28:09.382Z,95372.00
2018-09-21T17:33:40.894Z,95382.00
2018-09-21T17:39:12.535Z,95392.00
2018-09-21T17:44:43.089Z,95402.00
2018-09-21T17:50:12.579Z,95408.00
2018-09-21T17:55:42.071Z,95413.00
2018-09-21T18:01:11.850Z,95426.00
2018-09-21T18:06:41.299Z,95448.00
2018-09-21T18:12:10.936Z,95450.00
2018-09-21T18:17:40.671Z,95470.00
2018-09-21T18:23:10.260Z,95474.00
2018-09-21T18:28:39.815Z,95479.00
2018-09-21T18:34:09.432Z,95469.00
2018-09-21T18:39:38.930Z,95494.00
2018-09-21T18:45:08.520Z,95492.00
2018-09-21T18:50:38.061Z,95485.00
2018-09-21T18:56:07.395Z,95509.00
2018-09-21T19:01:36.636Z,95511.00
2018-09-21T19:07:10.264Z,95538.00
2018-09-21T19:12:39.705Z,95573.00
2018-09-21T19:18:09.201Z,95639.00
2018-09-21T19:23:38.776Z,95667.00
2018-09-21T19:29:08.306Z,95702.00
2018-09-21T19:34:37.882Z,95720.00
2018-09-21T19:40:07.180Z,95729.00
2018-09-21T19:45:36.606Z,95752.00
2018-09-21T19:51:05.857Z,95767.00
2018-09-21T19:56:36.182Z,95785.00
2018-09-21T20:02:05.429Z,95786.00
2018-09-21T20:07:34.741Z,95790.00
2018-09-21T20:13:06.108Z,95806.00
2018-09-21T20:18:35.446Z,95820.00
2018-09-21T20:24:04.852Z,95832.00
2018-09-21T20:29:34.548Z,95835.00
2018-09-21T20:35:03.941Z,95862.00
2018-09-21T20:40:33.306Z,95872.00
2018-09-21T20:46:03.040Z,95884.00
2018-09-21T20:51:32.576Z,95891.00
2018-09-21T20:57:01.843Z,95903.00
2018-09-21T21:02:31.100Z,95934.00
2018-09-21T21:08:00.288Z,95943.00
2018-09-21T21:13:29.600Z,95958.00
2018-09-21T21:19:00.959Z,95959.00
2018-09-21T21:24:31.264Z,95954.00
2018-09-21T21:30:00.482Z,95953.00
2018-09-21T21:35:29.761Z,95978.00
2018-09-21T21:40:59.306Z,95990.00
2018-09-21T21:46:29.733Z,96013.00
2018-09-21T21:52:11.327Z,96031.00
2018-09-21T21:57:41.765Z,96037.00
2018-09-21T22:03:11.154Z,96064.00
2018-09-21T22:08:40.483Z,96063.00
2018-09-21T22:14:10.799Z,96073.00
2018-09-21T22:19:40.123Z,96067.00
2018-09-21T22:25:09.984Z,96095.00
2018-09-21T22:30:40.356Z,96106.00
2018-09-21T22:36:10.183Z,96083.00
2018-09-21T22:41:39.880Z,96106.00
2018-09-21T22:47:10.418Z,96140.00
2018-09-21T22:52:39.846Z,96148.00
2018-09-21T22:58:10.186Z,96150.00
2018-09-21T23:03:39.535Z,96151.00
2018-09-21T23:09:11.464Z,96160.00
2018-09-21T23:14:40.865Z,96167.00
2018-09-21T23:20:10.203Z,96164.00
2018-09-21T23:25:40.635Z,96172.00
2018-09-21T23:31:10.487Z,96182.00
2018-09-21T23:36:40.820Z,96182.00
2018-09-21T23:42:10.281Z,96186.00
2018-09-21T23:47:40.455Z,96164.00
2018-09-21T23:53:09.894Z,96159.00
2018-09-21T23:58:39.308Z,96168.00
